createdAt,value
2019-02-09T00:02:01.375Z,6.15
2019-02-09T00:04:43.342Z,6.97
2019-02-09T00:07:25.910Z,6.17
2019-02-09T00:10:08.062Z,7.97
2019-02-09T00:12:50.498Z,8.20
2019-02-09T00:15:32.560Z,7.90
2019-02-09T00:18:15.095Z,7.25
2019-02-09T00:20:57.991Z,6.85
2019-02-09T00:23:39.902Z,6.67
2019-02-09T00:26:21.928Z,5.60
2019-02-09T00:29:04.061Z,6.42
2019-02-09T00:31:46.074Z,6.72
2019-02-09T00:34:28.488Z,6.03
2019-02-09T00:37:10.925Z,5.75
2019-02-09T00:39:53.179Z,6.30
2019-02-09T00:42:36.979Z,6.40
2019-02-09T00:45:18.879Z,6.03
2019-02-09T00:48:01.106Z,7.37
2019-02-09T00:50:43.241Z,6.62
2019-02-09T00:53:26.701Z,6.78
2019-02-09T00:56:08.625Z,6.95
2019-02-09T00:58:51.027Z,7.40
2019-02-09T01:01:33.730Z,7.25
2019-02-09T01:04:15.990Z,6.58
2019-02-09T01:06:57.843Z,6.83
2019-02-09T01:09:39.732Z,6.50
2019-02-09T01:12:22.242Z,7.25
2019-02-09T01:15:04.299Z,6.85
2019-02-09T01:17:46.769Z,7.10
2019-02-09T01:20:29.194Z,7.17
2019-02-09T01:23:11.408Z,6.87
2019-02-09T01:25:53.498Z,7.05
2019-02-09T01:28:35.317Z,6.40
2019-02-09T01:31:17.587Z,7.10
2019-02-09T01:33:59.571Z,6.92
2019-02-09T01:36:41.813Z,7.25
2019-02-09T01:39:24.090Z,7.50
2019-02-09T01:42:05.823Z,6.10
2019-02-09T01:44:48.163Z,5.90
2019-02-09T01:47:30.703Z,5.47
2019-02-09T01:50:12.919Z,5.47
2019-02-09T01:52:55.317Z,5.35
2019-02-09T01:55:37.312Z,5.20
2019-02-09T01:58:21.294Z,5.75
2019-02-09T02:01:03.233Z,4.95
2019-02-09T02:03:45.757Z,5.00
2019-02-09T02:06:28.177Z,5.33
2019-02-09T02:09:10.794Z,5.42
2019-02-09T02:11:53.288Z,5.22
2019-02-09T02:14:35.352Z,4.70
2019-02-09T02:17:17.806Z,5.15
2019-02-09T02:19:59.763Z,5.22
2019-02-09T02:22:41.966Z,5.85
2019-02-09T02:25:23.900Z,4.87
2019-02-09T02:28:06.416Z,4.70
2019-02-09T02:30:48.399Z,4.90
2019-02-09T02:33:30.907Z,5.25
2019-02-09T02:36:13.155Z,4.85
2019-02-09T02:38:55.002Z,5.10
2019-02-09T02:41:37.508Z,5.25
2019-02-09T02:44:19.574Z,4.35
2019-02-09T02:47:02.140Z,5.30
2019-02-09T02:49:44.843Z,5.60
2019-02-09T02:52:26.624Z,5.60
2019-02-09T02:55:08.483Z,6.00
2019-02-09T02:57:50.642Z,6.35
2019-02-09T03:00:33.342Z,6.12
2019-02-09T03:03:15.330Z,6.40
2019-02-09T03:05:57.938Z,5.62
2019-02-09T03:08:39.876Z,5.87
2019-02-09T03:11:22.048Z,6.00
2019-02-09T03:14:04.055Z,5.83
2019-02-09T03:16:46.235Z,6.30
2019-02-09T03:19:28.492Z,5.87
2019-02-09T03:22:10.531Z,6.08
2019-02-09T03:24:52.310Z,6.10
2019-02-09T03:27:34.218Z,5.58
2019-02-09T03:30:16.225Z,5.00
2019-02-09T03:32:58.797Z,5.70
2019-02-09T03:35:41.430Z,6.30
2019-02-09T03:38:23.567Z,5.00
2019-02-09T03:41:05.945Z,5.72
2019-02-09T03:43:47.891Z,6.97
2019-02-09T03:46:29.858Z,6.10
2019-02-09T03:49:11.755Z,5.53
2019-02-09T03:51:53.721Z,5.55
2019-02-09T03:54:36.061Z,5.42
2019-02-09T03:57:17.888Z,5.42
2019-02-09T04:00:00.317Z,6.00
2019-02-09T04:02:42.529Z,5.78
2019-02-09T04:05:25.215Z,5.55
2019-02-09T04:08:06.991Z,5.85
2019-02-09T04:10:48.979Z,6.70
2019-02-09T04:13:31.199Z,6.05
2019-02-09T04:16:13.490Z,5.72
2019-02-09T04:18:55.315Z,5.70
2019-02-09T04:21:37.925Z,5.10
2019-02-09T04:24:20.249Z,5.95
2019-02-09T04:27:02.579Z,5.83
2019-02-09T04:29:44.523Z,5.67
2019-02-09T04:32:27.245Z,6.25
2019-02-09T04:35:09.145Z,6.37
2019-02-09T04:37:51.676Z,6.37
2019-02-09T04:40:33.720Z,5.40
2019-02-09T04:43:16.026Z,6.03
2019-02-09T04:45:58.426Z,5.20
2019-02-09T04:48:40.945Z,5.80
2019-02-09T04:51:23.366Z,5.50
2019-02-09T04:54:05.945Z,6.37
2019-02-09T04:56:47.987Z,5.85
2019-02-09T04:59:30.672Z,6.45
2019-02-09T05:02:12.940Z,5.45
2019-02-09T05:04:55.198Z,5.15
2019-02-09T05:07:37.383Z,5.30
2019-02-09T05:10:19.745Z,5.83
2019-02-09T05:13:01.684Z,6.60
2019-02-09T05:15:44.262Z,6.03
2019-02-09T05:18:26.669Z,5.47
2019-02-09T05:21:08.649Z,5.28
2019-02-09T05:23:51.023Z,4.75
2019-02-09T05:26:32.943Z,5.12
2019-02-09T05:29:15.392Z,5.12
2019-02-09T05:31:57.696Z,4.62
2019-02-09T05:34:39.852Z,5.22
2019-02-09T05:37:22.181Z,5.00
2019-02-09T05:40:04.271Z,5.30
2019-02-09T05:42:46.698Z,4.53
2019-02-09T05:45:28.636Z,4.50
2019-02-09T05:48:10.963Z,4.55
2019-02-09T05:50:53.226Z,4.60
2019-02-09T05:53:35.310Z,4.25
2019-02-09T05:56:17.739Z,4.25
2019-02-09T05:59:00.048Z,4.22
2019-02-09T06:01:42.537Z,4.20
2019-02-09T06:04:25.152Z,4.80
2019-02-09T06:07:07.029Z,4.22
2019-02-09T06:09:49.612Z,4.40
2019-02-09T06:12:32.174Z,3.58
2019-02-09T06:15:14.181Z,4.25
2019-02-09T06:17:56.675Z,4.12
2019-02-09T06:20:38.437Z,3.60
2019-02-09T06:23:21.086Z,3.90
2019-02-09T06:26:03.840Z,3.90
2019-02-09T06:28:46.163Z,3.85
2019-02-09T06:31:28.554Z,4.37
2019-02-09T06:34:10.903Z,4.43
2019-02-09T06:36:53.305Z,3.90
2019-02-09T06:39:35.347Z,3.83
2019-02-09T06:42:17.547Z,3.20
2019-02-09T06:44:59.894Z,3.97
2019-02-09T06:47:41.785Z,3.77
2019-02-09T06:50:23.877Z,3.20
2019-02-09T06:53:06.703Z,3.13
2019-02-09T06:55:48.941Z,3.00
2019-02-09T06:58:31.495Z,3.13
2019-02-09T07:01:13.794Z,3.60
2019-02-09T07:03:56.054Z,3.17
2019-02-09T07:06:37.903Z,3.10
2019-02-09T07:09:19.883Z,2.70
2019-02-09T07:12:02.272Z,3.17
2019-02-09T07:14:44.661Z,3.07
2019-02-09T07:17:26.557Z,3.33
2019-02-09T07:20:08.778Z,3.00
2019-02-09T07:22:54.101Z,3.35
2019-02-09T07:25:37.984Z,2.53
2019-02-09T07:28:19.547Z,3.40
2019-02-09T07:31:02.156Z,3.40
2019-02-09T07:33:44.202Z,3.30
2019-02-09T07:36:26.431Z,3.27
2019-02-09T07:39:08.727Z,3.05
2019-02-09T07:41:50.875Z,2.93
2019-02-09T07:44:33.431Z,2.90
2019-02-09T07:47:15.331Z,3.10
2019-02-09T07:49:57.871Z,3.43
2019-02-09T07:52:40.386Z,3.13
2019-02-09T07:55:22.887Z,3.37
2019-02-09T07:58:05.137Z,3.17
2019-02-09T08:00:47.535Z,2.83
2019-02-09T08:03:29.547Z,3.03
2019-02-09T08:06:11.818Z,3.10
2019-02-09T08:08:53.903Z,3.03
2019-02-09T08:11:36.075Z,3.20
2019-02-09T08:14:18.276Z,2.97
2019-02-09T08:17:00.143Z,3.00
2019-02-09T08:19:42.014Z,3.70
2019-02-09T08:22:24.680Z,3.37
2019-02-09T08:25:07.153Z,3.30
2019-02-09T08:27:49.474Z,2.90
2019-02-09T08:30:31.463Z,3.93
2019-02-09T08:33:13.551Z,2.90
2019-02-09T08:35:55.880Z,3.83
2019-02-09T08:38:38.344Z,3.17
2019-02-09T08:41:22.204Z,3.80
2019-02-09T08:44:04.842Z,3.07
2019-02-09T08:46:47.151Z,3.67
2019-02-09T08:49:29.559Z,4.00
2019-02-09T08:52:11.762Z,2.83
2019-02-09T08:54:54.064Z,3.23
2019-02-09T08:57:35.902Z,3.03
2019-02-09T09:00:17.918Z,2.80
2019-02-09T09:03:00.511Z,3.27
2019-02-09T09:05:42.387Z,2.70
2019-02-09T09:08:24.408Z,2.60
2019-02-09T09:11:06.233Z,2.40
2019-02-09T09:13:48.338Z,2.40
2019-02-09T09:16:30.803Z,2.13
2019-02-09T09:19:13.245Z,2.43
2019-02-09T09:21:55.395Z,2.30
2019-02-09T09:24:37.789Z,2.43
2019-02-09T09:27:20.197Z,2.73
2019-02-09T09:30:02.140Z,2.13
2019-02-09T09:32:44.673Z,2.10
2019-02-09T09:35:26.909Z,2.30
2019-02-09T09:38:09.258Z,2.23
2019-02-09T09:40:51.526Z,2.10
2019-02-09T09:43:34.205Z,2.30
2019-02-09T09:46:16.570Z,1.90
2019-02-09T09:48:58.750Z,1.87
2019-02-09T09:51:43.918Z,1.80
2019-02-09T09:54:26.271Z,2.60
2019-02-09T09:57:08.778Z,1.97
2019-02-09T09:59:53.162Z,1.77
2019-02-09T10:02:36.653Z,1.90
2019-02-09T10:05:18.670Z,1.33
2019-02-09T10:08:01.071Z,2.20
2019-02-09T10:10:43.396Z,2.00
2019-02-09T10:13:26.117Z,1.77
2019-02-09T10:16:08.847Z,2.33
2019-02-09T10:18:51.494Z,1.50
2019-02-09T10:21:33.238Z,1.93
2019-02-09T10:24:15.839Z,2.23
2019-02-09T10:26:57.613Z,2.17
2019-02-09T10:29:40.310Z,2.00
2019-02-09T10:32:22.640Z,1.70
2019-02-09T10:35:04.823Z,2.20
2019-02-09T10:37:47.613Z,2.10
2019-02-09T10:40:29.921Z,1.93
2019-02-09T10:43:12.287Z,1.90
2019-02-09T10:45:53.663Z,2.00
2019-02-09T10:48:55.354Z,2.10
2019-02-09T10:51:54.273Z,1.73
2019-02-09T11:01:11.531Z,1.43
2019-02-09T11:04:20.778Z,1.77
2019-02-09T11:07:10.842Z,1.60
2019-02-09T11:09:51.973Z,1.67
2019-02-09T11:15:55.862Z,1.80
2019-02-09T11:18:45.500Z,1.80
2019-02-09T11:31:57.243Z,1.70
2019-02-09T11:34:47.137Z,1.77
2019-02-09T11:41:07.204Z,1.70
2019-02-09T11:47:18.732Z,7.90
2019-02-09T11:59:55.519Z,1.50
2019-02-09T12:02:45.149Z,1.40
2019-02-09T12:05:35.183Z,1.60
2019-02-09T12:08:24.832Z,1.30
2019-02-09T12:11:26.345Z,1.93
2019-02-09T12:14:08.667Z,1.40
2019-02-09T12:16:51.562Z,1.20
2019-02-09T12:19:33.506Z,1.13
2019-02-09T12:22:15.907Z,1.60
2019-02-09T12:24:58.317Z,1.23
2019-02-09T12:27:40.251Z,1.60
2019-02-09T12:30:22.638Z,1.33
2019-02-09T12:33:05.039Z,1.50
2019-02-09T12:35:47.432Z,1.30
2019-02-09T12:38:29.638Z,1.50
2019-02-09T12:41:11.729Z,1.37
2019-02-09T12:43:53.824Z,1.60
2019-02-09T12:46:36.102Z,1.13
2019-02-09T12:49:18.309Z,1.20
2019-02-09T12:52:00.244Z,1.20
2019-02-09T12:54:42.676Z,1.07
2019-02-09T12:57:25.140Z,1.37
2019-02-09T13:00:07.162Z,1.80
2019-02-09T13:02:49.600Z,1.50
2019-02-09T13:05:31.311Z,1.20
2019-02-09T13:08:13.464Z,1.40
2019-02-09T13:10:55.853Z,1.17
2019-02-09T13:13:37.691Z,1.23
2019-02-09T13:16:19.665Z,1.33
2019-02-09T13:19:01.994Z,1.93
2019-02-09T13:21:45.019Z,1.40
2019-02-09T13:24:27.621Z,1.30
2019-02-09T13:27:09.892Z,2.40
2019-02-09T13:29:52.035Z,1.30
2019-02-09T13:32:33.787Z,1.20
2019-02-09T13:35:15.596Z,0.80
2019-02-09T13:37:58.286Z,1.03
2019-02-09T13:40:40.836Z,0.90
2019-02-09T13:43:23.187Z,1.10
2019-02-09T13:46:05.620Z,1.00
2019-02-09T13:48:47.567Z,1.00
2019-02-09T13:51:29.723Z,1.17
2019-02-09T13:54:12.172Z,1.43
2019-02-09T13:56:54.458Z,1.20
2019-02-09T13:59:36.449Z,1.10
2019-02-09T14:02:18.871Z,0.90
2019-02-09T14:05:01.037Z,0.90
2019-02-09T14:07:42.999Z,1.07
2019-02-09T14:10:25.360Z,1.10
2019-02-09T14:13:14.200Z,1.40
2019-02-09T14:15:51.375Z,1.30
2019-02-09T14:18:33.647Z,1.53
2019-02-09T14:21:16.362Z,1.07
2019-02-09T14:23:59.248Z,1.40
2019-02-09T14:26:41.363Z,1.13
2019-02-09T14:29:23.909Z,1.30
2019-02-09T14:32:05.814Z,1.43
2019-02-09T14:34:47.531Z,1.10
2019-02-09T14:37:29.413Z,1.13
2019-02-09T14:40:11.349Z,1.20
2019-02-09T14:42:54.059Z,1.40
2019-02-09T14:45:36.495Z,1.30
2019-02-09T14:48:18.584Z,1.70
2019-02-09T14:51:01.063Z,1.67
2019-02-09T14:53:43.333Z,1.33
2019-02-09T14:56:25.705Z,1.00
2019-02-09T14:59:08.205Z,1.20
2019-02-09T15:01:50.746Z,1.37
2019-02-09T15:04:33.081Z,1.10
2019-02-09T15:07:15.202Z,1.10
2019-02-09T15:09:57.185Z,1.50
2019-02-09T15:12:39.571Z,1.63
2019-02-09T15:15:21.611Z,2.20
2019-02-09T15:18:03.899Z,1.37
2019-02-09T15:20:46.901Z,0.90
2019-02-09T15:23:29.537Z,1.43
2019-02-09T15:26:12.756Z,1.80
2019-02-09T15:28:57.818Z,2.23
2019-02-09T15:31:40.142Z,2.17
2019-02-09T15:34:22.902Z,1.60
2019-02-09T15:37:05.344Z,1.63
2019-02-09T15:39:47.188Z,1.67
2019-02-09T15:42:29.068Z,1.60
2019-02-09T15:45:11.255Z,1.70
2019-02-09T15:47:53.754Z,1.77
2019-02-09T15:50:36.041Z,1.70
2019-02-09T15:53:18.741Z,1.67
2019-02-09T15:56:00.647Z,1.53
2019-02-09T15:58:43.252Z,2.13
2019-02-09T16:01:26.085Z,2.10
2019-02-09T16:04:08.598Z,2.23
2019-02-09T16:06:50.615Z,1.53
2019-02-09T16:09:33.122Z,1.63
2019-02-09T16:12:14.981Z,1.70
2019-02-09T16:14:56.836Z,1.40
2019-02-09T16:17:38.634Z,2.07
2019-02-09T16:20:20.745Z,1.90
2019-02-09T16:23:05.557Z,2.17
2019-02-09T16:25:47.943Z,1.43
2019-02-09T16:28:30.446Z,1.43
2019-02-09T16:31:12.899Z,1.50
2019-02-09T16:33:55.127Z,2.17
2019-02-09T16:36:37.406Z,2.67
2019-02-09T16:39:19.293Z,2.13
2019-02-09T16:42:01.740Z,2.00
2019-02-09T16:44:44.026Z,2.50
2019-02-09T16:47:25.868Z,2.40
2019-02-09T16:50:07.719Z,2.50
2019-02-09T16:52:49.984Z,2.70
2019-02-09T16:55:31.997Z,2.33
2019-02-09T16:58:14.405Z,1.37
2019-02-09T17:00:56.555Z,2.00
2019-02-09T17:03:38.454Z,2.10
2019-02-09T17:06:21.210Z,3.03
2019-02-09T17:09:04.505Z,1.97
2019-02-09T17:11:47.025Z,2.10
2019-02-09T17:14:29.245Z,1.87
2019-02-09T17:17:11.358Z,1.37
2019-02-09T17:19:53.980Z,2.00
2019-02-09T17:22:36.949Z,2.77
2019-02-09T17:25:19.708Z,3.30
2019-02-09T17:28:02.049Z,2.57
2019-02-09T17:30:44.352Z,2.37
2019-02-09T17:33:26.581Z,1.73
2019-02-09T17:36:08.611Z,1.80
2019-02-09T17:38:50.533Z,1.90
2019-02-09T17:41:32.864Z,1.80
2019-02-09T17:44:14.727Z,1.87
2019-02-09T17:46:56.962Z,2.00
2019-02-09T17:49:39.381Z,3.10
2019-02-09T17:52:21.922Z,2.67
2019-02-09T17:55:03.973Z,2.20
2019-02-09T17:57:46.424Z,2.47
2019-02-09T18:00:34.327Z,1.67
2019-02-09T18:03:16.479Z,2.07
2019-02-09T18:05:58.917Z,2.20
2019-02-09T18:08:40.791Z,2.67
2019-02-09T18:11:23.089Z,2.50
2019-02-09T18:14:05.607Z,2.13
2019-02-09T18:16:47.788Z,1.90
2019-02-09T18:19:30.998Z,2.00
2019-02-09T18:22:13.158Z,1.73
2019-02-09T18:24:55.551Z,2.67
2019-02-09T18:27:38.172Z,2.00
2019-02-09T18:30:20.608Z,2.10
2019-02-09T18:33:02.864Z,2.10
2019-02-09T18:35:44.779Z,1.70
2019-02-09T18:38:28.003Z,1.93
2019-02-09T18:41:09.803Z,1.90
2019-02-09T18:43:52.164Z,1.97
2019-02-09T18:46:34.239Z,1.73
2019-02-09T18:49:16.333Z,1.80
2019-02-09T18:51:58.834Z,2.30
2019-02-09T18:54:40.920Z,1.90
2019-02-09T18:57:26.717Z,1.90
2019-02-09T19:00:09.318Z,2.57
2019-02-09T19:02:51.855Z,2.00
2019-02-09T19:05:33.967Z,2.43
2019-02-09T19:08:16.314Z,2.60
2019-02-09T19:10:58.486Z,2.03
2019-02-09T19:13:40.942Z,2.67
2019-02-09T19:16:23.081Z,2.50
2019-02-09T19:19:05.684Z,2.27
2019-02-09T19:21:47.477Z,1.90
2019-02-09T19:24:29.645Z,2.00
2019-02-09T19:27:12.007Z,2.17
2019-02-09T19:29:54.006Z,2.50
2019-02-09T19:32:36.202Z,2.97
2019-02-09T19:35:18.670Z,2.53
2019-02-09T19:38:00.839Z,3.00
2019-02-09T19:40:42.837Z,3.43
2019-02-09T19:43:25.291Z,2.50
2019-02-09T19:46:07.574Z,4.00
2019-02-09T19:48:50.273Z,5.57
2019-02-09T19:51:32.774Z,3.77
2019-02-09T19:54:14.817Z,4.07
2019-02-09T19:56:56.787Z,2.83
2019-02-09T19:59:39.379Z,2.77
2019-02-09T20:02:21.710Z,3.50
2019-02-09T20:05:03.857Z,3.00
2019-02-09T20:07:46.925Z,3.20
2019-02-09T20:10:29.584Z,3.50
2019-02-09T20:13:11.887Z,4.43
2019-02-09T20:15:54.116Z,4.37
2019-02-09T20:18:36.633Z,3.83
2019-02-09T20:21:19.041Z,3.37
2019-02-09T20:24:00.999Z,2.80
2019-02-09T20:26:43.458Z,2.40
2019-02-09T20:29:26.220Z,2.43
2019-02-09T20:32:08.374Z,2.17
2019-02-09T20:34:50.465Z,2.13
2019-02-09T20:37:32.824Z,2.03
2019-02-09T20:40:14.999Z,2.40
2019-02-09T20:43:02.798Z,2.00
2019-02-09T20:45:41.251Z,2.13
2019-02-09T20:48:23.521Z,1.83
2019-02-09T20:51:05.853Z,1.80
2019-02-09T20:53:48.193Z,2.00
2019-02-09T20:59:15.370Z,1.97
2019-02-09T21:01:57.882Z,2.37
2019-02-09T21:04:40.168Z,2.10
2019-02-09T21:07:24.558Z,2.47
2019-02-09T21:10:06.103Z,2.70
2019-02-09T21:12:48.488Z,2.70
2019-02-09T21:15:30.725Z,2.43
2019-02-09T21:18:12.631Z,2.60
2019-02-09T21:20:54.958Z,3.00
2019-02-09T21:23:37.503Z,2.20
2019-02-09T21:26:20.146Z,2.37
2019-02-09T21:29:02.319Z,2.33
2019-02-09T21:31:43.983Z,3.07
2019-02-09T21:34:34.720Z,3.77
2019-02-09T21:37:24.689Z,4.93
2019-02-09T21:43:50.235Z,2.50
2019-02-09T21:46:39.897Z,2.87
2019-02-09T21:49:29.811Z,2.93
2019-02-09T21:58:50.463Z,3.67
2019-02-09T22:01:59.806Z,2.90
2019-02-09T22:11:14.576Z,2.43
2019-02-09T22:13:55.326Z,2.57
2019-02-09T22:16:56.704Z,2.57
2019-02-09T22:19:55.684Z,2.80
2019-02-09T22:26:14.883Z,2.50
2019-02-09T22:29:19.151Z,2.83
2019-02-09T22:32:30.112Z,2.70
2019-02-09T22:35:26.544Z,2.83
2019-02-09T22:38:16.233Z,2.30
2019-02-09T22:47:51.227Z,2.73
2019-02-09T22:54:10.968Z,2.70
2019-02-09T22:57:00.674Z,2.43
2019-02-09T23:00:33.867Z,2.27
2019-02-09T23:07:13.134Z,2.10
2019-02-09T23:10:22.215Z,2.00
2019-02-09T23:13:04.044Z,2.23
2019-02-09T23:15:46.597Z,2.23
2019-02-09T23:18:28.373Z,2.43
2019-02-09T23:21:10.884Z,2.40
2019-02-09T23:23:53.273Z,2.67
2019-02-09T23:26:35.537Z,2.47
2019-02-09T23:29:17.674Z,2.10
2019-02-09T23:31:59.886Z,2.37
2019-02-09T23:34:41.574Z,2.43
2019-02-09T23:37:23.839Z,2.37
2019-02-09T23:40:05.822Z,2.60
2019-02-09T23:42:49.354Z,2.70
2019-02-09T23:45:31.538Z,2.10
2019-02-09T23:48:13.698Z,3.40
2019-02-09T23:50:55.795Z,4.00
2019-02-09T23:53:38.094Z,6.67
2019-02-09T23:56:20.235Z,6.63
2019-02-09T23:59:01.056Z,5.80
